createdAt,value
2023-08-10T00:01:07.092Z,100742.47
2023-08-10T00:03:36.421Z,100742.30
2023-08-10T00:06:04.267Z,100745.17
2023-08-10T00:08:32.106Z,100742.95
2023-08-10T00:10:59.910Z,100742.78
2023-08-10T00:13:28.054Z,100746.04
2023-08-10T00:15:56.221Z,100745.19
2023-08-10T00:18:23.956Z,100745.36
2023-08-10T00:20:52.162Z,100744.67
2023-08-10T00:23:20.274Z,100743.64
2023-08-10T00:25:49.056Z,100745.37
2023-08-10T00:28:16.850Z,100743.65
2023-08-10T00:30:44.773Z,100743.82
2023-08-10T00:33:17.976Z,100741.42
2023-08-10T00:35:52.295Z,100741.77
2023-08-10T00:38:20.061Z,100740.92
2023-08-10T00:40:48.138Z,100741.95
2023-08-10T00:43:15.879Z,100742.80
2023-08-10T00:45:43.837Z,100742.11
2023-08-10T00:48:11.815Z,100742.12
2023-08-10T00:50:39.896Z,100742.30
2023-08-10T00:53:07.750Z,100744.32
2023-08-10T00:55:35.916Z,100744.84
2023-08-10T00:58:03.921Z,100745.19
2023-08-10T01:00:31.788Z,100748.77
2023-08-10T01:02:59.807Z,100748.27
2023-08-10T01:05:34.483Z,100748.09
2023-08-10T01:08:11.795Z,100752.52
2023-08-10T01:11:21.013Z,100751.16
2023-08-10T01:13:59.338Z,100750.64
2023-08-10T01:16:29.377Z,100755.77
2023-08-10T01:18:58.458Z,100755.77
2023-08-10T01:22:02.949Z,100756.27
2023-08-10T01:24:34.429Z,100761.39
2023-08-10T01:27:03.325Z,100764.98
2023-08-10T01:29:31.409Z,100767.89
2023-08-10T01:31:59.379Z,100772.14
2023-08-10T01:34:27.329Z,100776.09
2023-08-10T01:36:55.808Z,100775.05
2023-08-10T01:39:23.618Z,100777.61
2023-08-10T01:41:51.539Z,100776.06
2023-08-10T01:44:19.510Z,100777.08
2023-08-10T01:46:48.907Z,100774.69
2023-08-10T01:49:20.564Z,100770.25
2023-08-10T01:51:50.888Z,100775.03
2023-08-10T01:54:21.523Z,100773.66
2023-08-10T01:56:49.381Z,100773.66
2023-08-10T01:59:17.247Z,100773.16
2023-08-10T02:01:45.144Z,100774.52
2023-08-10T02:04:13.204Z,100779.48
2023-08-10T02:06:41.991Z,100780.34
2023-08-10T02:09:10.150Z,100780.67
2023-08-10T02:11:38.125Z,100778.45
2023-08-10T02:14:06.286Z,100777.41
2023-08-10T02:16:34.156Z,100775.54
2023-08-10T02:19:02.039Z,100773.48
2023-08-10T02:21:29.999Z,100774.00
2023-08-10T02:23:57.874Z,100774.16
2023-08-10T02:26:25.830Z,100775.87
2023-08-10T02:28:53.628Z,100775.70
2023-08-10T02:31:22.631Z,100777.23
2023-08-10T02:33:50.553Z,100774.15
2023-08-10T02:36:18.424Z,100777.23
2023-08-10T02:38:46.221Z,100776.88
2023-08-10T02:41:14.150Z,100778.42
2023-08-10T02:43:42.362Z,100778.58
2023-08-10T02:46:10.374Z,100779.77
2023-08-10T02:48:38.467Z,100781.30
2023-08-10T02:51:06.255Z,100785.40
2023-08-10T02:53:34.198Z,100790.67
2023-08-10T02:56:02.170Z,100792.90
2023-08-10T02:58:30.232Z,100794.95
2023-08-10T03:00:58.121Z,100798.69
2023-08-10T03:03:27.400Z,100803.29
2023-08-10T03:05:55.301Z,100805.16
2023-08-10T03:08:23.231Z,100805.84
2023-08-10T03:10:51.712Z,100809.08
2023-08-10T03:13:19.682Z,100813.86
2023-08-10T03:15:47.586Z,100816.23
2023-08-10T03:18:15.516Z,100818.96
2023-08-10T03:20:43.803Z,100826.10
2023-08-10T03:23:11.660Z,100827.29
2023-08-10T03:25:39.528Z,100824.56
2023-08-10T03:28:07.505Z,100828.98
2023-08-10T03:30:37.630Z,100826.94
2023-08-10T03:33:05.779Z,100827.44
2023-08-10T03:35:34.067Z,100827.44
2023-08-10T03:38:01.970Z,100830.16
2023-08-10T03:40:29.997Z,100828.80
2023-08-10T03:42:57.893Z,100827.95
2023-08-10T03:45:25.830Z,100834.59
2023-08-10T03:47:53.679Z,100834.23
2023-08-10T03:50:21.794Z,100831.52
2023-08-10T03:52:49.766Z,100836.13
2023-08-10T03:55:20.125Z,100840.55
2023-08-10T03:57:48.026Z,100838.00
2023-08-10T04:00:17.589Z,100839.38
2023-08-10T04:02:45.829Z,100839.55
2023-08-10T04:05:14.094Z,100847.06
2023-08-10T04:07:42.049Z,100844.33
2023-08-10T04:10:11.450Z,100848.61
2023-08-10T04:12:40.013Z,100845.54
2023-08-10T04:15:08.594Z,100845.73
2023-08-10T04:17:37.804Z,100843.02
2023-08-10T04:20:10.588Z,100847.11
2023-08-10T04:22:38.729Z,100850.21
2023-08-10T04:25:08.582Z,100851.42
2023-08-10T04:27:36.848Z,100848.88
2023-08-10T04:30:05.708Z,100848.55
2023-08-10T04:32:33.849Z,100850.10
2023-08-10T04:35:01.908Z,100854.05
2023-08-10T04:37:29.795Z,100856.79
2023-08-10T04:39:57.990Z,100860.04
2023-08-10T04:42:25.802Z,100862.27
2023-08-10T04:44:53.599Z,100864.67
2023-08-10T04:47:21.445Z,100867.24
2023-08-10T04:49:49.227Z,100871.02
2023-08-10T04:52:16.995Z,100866.74
2023-08-10T04:54:45.410Z,100866.77
2023-08-10T04:57:13.176Z,100866.09
2023-08-10T04:59:40.991Z,100871.39
2023-08-10T05:02:09.926Z,100873.11
2023-08-10T05:04:37.762Z,100879.11
2023-08-10T05:07:05.793Z,100886.11
2023-08-10T05:09:42.540Z,100889.89
2023-08-10T05:12:21.305Z,100889.08
2023-08-10T05:14:49.313Z,100885.14
2023-08-10T05:17:17.296Z,100886.52
2023-08-10T05:19:45.274Z,100893.00
2023-08-10T05:22:13.081Z,100886.34
2023-08-10T05:24:41.416Z,100888.55
2023-08-10T05:27:09.227Z,100890.95
2023-08-10T05:29:37.071Z,100895.56
2023-08-10T05:32:05.159Z,100901.19
2023-08-10T05:34:33.206Z,100902.89
2023-08-10T05:37:01.007Z,100909.38
2023-08-10T05:39:29.310Z,100911.76
2023-08-10T05:41:57.152Z,100915.34
2023-08-10T05:44:24.901Z,100914.96
2023-08-10T05:46:52.939Z,100922.83
2023-08-10T05:49:20.757Z,100928.64
2023-08-10T05:51:48.613Z,100932.75
2023-08-10T05:54:16.474Z,100930.52
2023-08-10T05:56:44.307Z,100932.56
2023-08-10T05:59:12.200Z,100930.81
2023-08-10T06:01:44.515Z,100934.55
2023-08-10T06:04:12.620Z,100933.85
2023-08-10T06:06:40.430Z,100938.98
2023-08-10T06:09:12.544Z,100938.95
2023-08-10T06:11:48.177Z,100939.77
2023-08-10T06:14:16.683Z,100941.61
2023-08-10T06:16:44.665Z,100936.61
2023-08-10T06:19:12.439Z,100936.04
2023-08-10T06:21:40.256Z,100934.80
2023-08-10T06:24:10.533Z,100937.17
2023-08-10T06:26:38.492Z,100941.25
2023-08-10T06:29:06.505Z,100942.08
2023-08-10T06:31:34.567Z,100945.63
2023-08-10T06:34:04.257Z,100946.74
2023-08-10T06:36:32.413Z,100948.92
2023-08-10T06:39:00.288Z,100945.94
2023-08-10T06:41:28.853Z,100944.86
2023-08-10T06:43:57.010Z,100945.30
2023-08-10T06:46:24.869Z,100943.17
2023-08-10T06:48:52.765Z,100940.41
2023-08-10T06:51:20.631Z,100941.55
2023-08-10T06:53:48.524Z,100945.94
2023-08-10T06:56:17.284Z,100944.82
2023-08-10T06:59:19.443Z,100939.58
2023-08-10T07:01:32.878Z,100940.98
2023-08-10T07:04:03.738Z,100943.64
2023-08-10T07:06:32.865Z,100947.35
2023-08-10T07:09:00.720Z,100944.84
2023-08-10T07:11:28.599Z,100943.02
2023-08-10T07:13:56.506Z,100945.36
2023-08-10T07:16:24.912Z,100940.10
2023-08-10T07:18:52.868Z,100943.94
2023-08-10T07:21:21.667Z,100946.30
2023-08-10T07:23:49.890Z,100950.30
2023-08-10T07:26:17.827Z,100944.15
2023-08-10T07:28:48.570Z,100941.91
2023-08-10T07:31:16.938Z,100942.09
2023-08-10T07:33:44.794Z,100946.45
2023-08-10T07:36:13.350Z,100949.09
2023-08-10T07:38:41.863Z,100949.27
2023-08-10T07:41:09.766Z,100949.93
2023-08-10T07:43:37.569Z,100948.21
2023-08-10T07:46:05.461Z,100946.48
2023-08-10T07:48:33.475Z,100948.77
2023-08-10T07:51:02.415Z,100949.15
2023-08-10T07:53:30.832Z,100952.56
2023-08-10T07:56:01.207Z,100949.59
2023-08-10T07:58:32.683Z,100953.66
2023-08-10T08:01:15.686Z,100954.83
2023-08-10T08:03:45.093Z,100955.38
2023-08-10T08:06:15.722Z,100956.11
2023-08-10T08:08:44.652Z,100955.08
2023-08-10T08:11:30.633Z,100956.52
2023-08-10T08:14:00.270Z,100952.33
2023-08-10T08:16:30.793Z,100956.69
2023-08-10T08:19:02.294Z,100958.84
2023-08-10T08:21:32.757Z,100958.45
2023-08-10T08:24:02.297Z,100956.41
2023-08-10T08:26:31.792Z,100953.29
2023-08-10T08:29:01.717Z,100953.02
2023-08-10T08:31:29.781Z,100953.88
2023-08-10T08:33:59.031Z,100950.61
2023-08-10T08:36:27.192Z,100957.21
2023-08-10T08:38:57.916Z,100955.56
2023-08-10T08:41:36.893Z,100958.19
2023-08-10T08:44:08.190Z,100958.63
2023-08-10T08:46:45.124Z,100960.06
2023-08-10T08:49:13.519Z,100959.83
2023-08-10T08:51:51.299Z,100959.78
2023-08-10T08:54:22.456Z,100961.24
2023-08-10T08:57:04.697Z,100964.41
2023-08-10T08:59:34.272Z,100962.55
2023-08-10T09:02:16.312Z,100969.30
2023-08-10T09:04:45.981Z,100970.23
2023-08-10T09:07:14.156Z,100975.00
2023-08-10T09:09:43.177Z,100974.75
2023-08-10T09:12:34.377Z,100971.10
2023-08-10T09:15:06.510Z,100971.85
2023-08-10T09:17:37.920Z,100971.20
2023-08-10T09:20:10.302Z,100969.59
2023-08-10T09:22:40.128Z,100967.23
2023-08-10T09:25:08.566Z,100969.96
2023-08-10T09:27:38.850Z,100969.92
2023-08-10T09:30:08.873Z,100970.95
2023-08-10T09:32:50.074Z,100972.98
2023-08-10T09:35:20.514Z,100975.52
2023-08-10T09:37:49.728Z,100973.61
2023-08-10T09:40:18.617Z,100972.55
2023-08-10T09:42:49.916Z,100976.06
2023-08-10T09:45:19.418Z,100973.11
2023-08-10T09:47:52.330Z,100976.44
2023-08-10T09:50:25.816Z,100974.11
2023-08-10T09:52:55.667Z,100973.08
2023-08-10T09:55:24.114Z,100973.02
2023-08-10T09:57:53.561Z,100976.02
2023-08-10T10:00:24.563Z,100980.23
2023-08-10T10:02:55.543Z,100982.76
2023-08-10T10:08:01.625Z,100982.97
2023-08-10T10:10:32.433Z,100980.27
2023-08-10T10:13:02.314Z,100979.80
2023-08-10T10:15:32.093Z,100982.08
2023-08-10T10:18:00.309Z,100980.02
2023-08-10T10:20:28.944Z,100983.52
2023-08-10T10:22:56.928Z,100978.86
2023-08-10T10:25:24.860Z,100979.15
2023-08-10T10:27:55.849Z,100982.77
2023-08-10T10:30:25.340Z,100985.79
2023-08-10T10:32:54.093Z,100986.27
2023-08-10T10:35:30.772Z,100989.89
2023-08-10T10:37:59.985Z,100990.33
2023-08-10T10:40:28.731Z,100990.20
2023-08-10T10:43:07.107Z,100992.24
2023-08-10T10:45:36.169Z,100988.23
2023-08-10T10:48:07.099Z,100988.39
2023-08-10T10:50:36.284Z,100985.17
2023-08-10T10:53:17.092Z,100982.91
2023-08-10T10:55:46.711Z,100981.33
2023-08-10T10:58:18.222Z,100976.98
2023-08-10T11:00:49.638Z,100976.36
2023-08-10T11:03:21.103Z,100972.62
2023-08-10T11:05:49.404Z,100974.70
2023-08-10T11:08:17.344Z,100976.83
2023-08-10T11:10:45.882Z,100974.08
2023-08-10T11:13:14.370Z,100970.36
2023-08-10T11:15:47.653Z,100971.71
2023-08-10T11:18:15.758Z,100971.16
2023-08-10T11:20:49.064Z,100973.44
2023-08-10T11:23:17.006Z,100970.23
2023-08-10T11:25:50.668Z,100968.02
2023-08-10T11:28:20.593Z,100966.70
2023-08-10T11:30:49.724Z,100963.72
2023-08-10T11:35:52.999Z,100962.80
2023-08-10T11:38:21.707Z,100959.45
2023-08-10T11:40:49.827Z,100957.17
2023-08-10T11:43:21.624Z,100960.66
2023-08-10T11:45:50.240Z,100960.12
2023-08-10T11:48:20.846Z,100961.92
2023-08-10T11:50:59.325Z,100962.04
2023-08-10T11:53:40.475Z,100965.02
2023-08-10T11:56:10.250Z,100956.84
2023-08-10T11:58:41.269Z,100956.36
2023-08-10T12:01:10.780Z,100954.69
2023-08-10T12:03:51.025Z,100950.89
2023-08-10T12:06:20.005Z,100948.41
2023-08-10T12:08:58.265Z,100950.05
2023-08-10T12:11:27.814Z,100952.83
2023-08-10T12:13:55.902Z,100953.29
2023-08-10T12:16:24.440Z,100955.16
2023-08-10T12:18:53.188Z,100949.04
2023-08-10T12:21:21.327Z,100949.60
2023-08-10T12:23:49.426Z,100945.38
2023-08-10T12:26:18.104Z,100945.87
2023-08-10T12:31:18.727Z,100944.92
2023-08-10T12:33:47.073Z,100940.15
2023-08-10T12:36:15.121Z,100938.55
2023-08-10T12:38:43.439Z,100939.27
2023-08-10T12:41:12.909Z,100939.35
2023-08-10T12:43:41.031Z,100944.13
2023-08-10T12:46:09.227Z,100942.73
2023-08-10T12:48:37.802Z,100942.70
2023-08-10T12:51:09.210Z,100940.92
2023-08-10T12:53:37.633Z,100938.09
2023-08-10T12:56:05.913Z,100937.95
2023-08-10T12:58:33.953Z,100935.95
2023-08-10T13:01:02.129Z,100936.13
2023-08-10T13:03:32.595Z,100932.95
2023-08-10T13:06:00.825Z,100939.59
2023-08-10T13:08:29.137Z,100934.73
2023-08-10T13:10:57.014Z,100932.08
2023-08-10T13:13:24.969Z,100929.23
2023-08-10T13:15:52.952Z,100923.05
2023-08-10T13:18:21.076Z,100915.67
2023-08-10T13:20:49.086Z,100913.60
2023-08-10T13:23:16.941Z,100914.23
2023-08-10T13:25:44.903Z,100916.98
2023-08-10T13:28:12.966Z,100916.05
2023-08-10T13:30:41.584Z,100914.11
2023-08-10T13:33:09.641Z,100915.98
2023-08-10T13:35:37.879Z,100913.73
2023-08-10T13:38:05.673Z,100915.13
2023-08-10T13:40:33.715Z,100913.98
2023-08-10T13:43:01.896Z,100916.13
2023-08-10T13:45:29.997Z,100916.11
2023-08-10T13:47:58.060Z,100913.88
2023-08-10T13:50:28.668Z,100904.88
2023-08-10T13:52:56.656Z,100913.59
2023-08-10T13:55:26.026Z,100907.38
2023-08-10T13:57:54.103Z,100908.05
2023-08-10T14:00:22.167Z,100905.16
2023-08-10T14:02:50.367Z,100909.00
2023-08-10T14:05:18.529Z,100909.82
2023-08-10T14:07:46.687Z,100913.32
2023-08-10T14:10:14.771Z,100911.73
2023-08-10T14:12:43.301Z,100912.64
2023-08-10T14:15:11.822Z,100913.64
2023-08-10T14:17:39.804Z,100911.73
2023-08-10T14:20:09.448Z,100908.77
2023-08-10T14:22:37.919Z,100912.69
2023-08-10T14:25:06.364Z,100912.39
2023-08-10T14:27:34.344Z,100907.33
2023-08-10T14:30:02.434Z,100906.28
2023-08-10T14:32:30.820Z,100910.55
2023-08-10T14:34:58.853Z,100900.61
2023-08-10T14:37:27.526Z,100904.91
2023-08-10T14:39:55.704Z,100899.57
2023-08-10T14:42:23.766Z,100903.85
2023-08-10T14:44:52.951Z,100901.98
2023-08-10T14:47:21.428Z,100905.09
2023-08-10T14:49:49.514Z,100904.48
2023-08-10T14:52:17.494Z,100902.50
2023-08-10T14:54:45.352Z,100901.48
2023-08-10T14:57:13.331Z,100903.77
2023-08-10T14:59:42.516Z,100911.06
2023-08-10T15:02:10.676Z,100908.43
2023-08-10T15:04:38.859Z,100910.75
2023-08-10T15:07:06.966Z,100914.77
2023-08-10T15:09:35.099Z,100910.48
2023-08-10T15:12:03.833Z,100905.64
2023-08-10T15:14:32.092Z,100908.05
2023-08-10T15:17:00.025Z,100905.42
2023-08-10T15:19:27.926Z,100906.88
2023-08-10T15:21:55.969Z,100905.41
2023-08-10T15:24:23.795Z,100903.48
2023-08-10T15:26:51.699Z,100899.85
2023-08-10T15:29:19.566Z,100898.06
2023-08-10T15:31:47.440Z,100897.02
2023-08-10T15:34:15.409Z,100897.61
2023-08-10T15:36:43.193Z,100896.11
2023-08-10T15:39:11.154Z,100902.92
2023-08-10T15:41:39.204Z,100907.55
2023-08-10T15:44:07.096Z,100899.58
2023-08-10T15:46:35.265Z,100904.77
2023-08-10T15:49:03.249Z,100903.54
2023-08-10T15:51:31.042Z,100907.14
2023-08-10T15:53:59.719Z,100910.30
2023-08-10T15:56:28.493Z,100908.07
2023-08-10T15:58:57.643Z,100908.77
2023-08-10T16:01:26.442Z,100913.09
2023-08-10T16:03:56.959Z,100911.14
2023-08-10T16:06:39.996Z,100910.30
2023-08-10T16:09:11.149Z,100911.61
2023-08-10T16:11:42.258Z,100910.88
2023-08-10T16:14:13.510Z,100911.36
2023-08-10T16:16:42.398Z,100911.28
2023-08-10T16:19:15.079Z,100914.84
2023-08-10T16:21:44.077Z,100916.98
2023-08-10T16:24:16.042Z,100919.14
2023-08-10T16:26:45.850Z,100916.46
2023-08-10T16:29:14.236Z,100916.53
2023-08-10T16:31:44.687Z,100914.43
2023-08-10T16:34:13.247Z,100917.71
2023-08-10T16:36:41.720Z,100919.42
2023-08-10T16:39:12.654Z,100920.02
2023-08-10T16:41:48.206Z,100922.70
2023-08-10T16:44:20.886Z,100922.33
2023-08-10T16:46:49.256Z,100927.75
2023-08-10T16:49:17.246Z,100929.96
2023-08-10T16:51:46.735Z,100929.26
2023-08-10T16:54:17.673Z,100927.38
2023-08-10T16:56:47.999Z,100930.04
2023-08-10T16:59:16.679Z,100932.50
2023-08-10T17:01:56.842Z,100936.07
2023-08-10T17:04:25.720Z,100933.10
2023-08-10T17:06:54.005Z,100936.11
2023-08-10T17:09:22.523Z,100937.05
2023-08-10T17:11:50.961Z,100937.75
2023-08-10T17:14:19.230Z,100938.48
2023-08-10T17:16:47.643Z,100946.42
2023-08-10T17:19:16.294Z,100945.79
2023-08-10T17:21:44.612Z,100944.08
2023-08-10T17:24:13.397Z,100940.86
2023-08-10T17:26:41.646Z,100943.08
2023-08-10T17:29:19.592Z,100943.43
2023-08-10T17:31:49.654Z,100945.14
2023-08-10T17:34:18.333Z,100951.08
2023-08-10T17:36:48.555Z,100948.92
2023-08-10T17:39:17.237Z,100949.90
2023-08-10T17:41:48.082Z,100950.94
2023-08-10T17:44:16.862Z,100954.09
2023-08-10T17:46:45.482Z,100955.66
2023-08-10T17:49:14.275Z,100956.77
2023-08-10T17:51:42.670Z,100955.95
2023-08-10T17:54:11.457Z,100958.48
2023-08-10T17:56:39.375Z,100959.94
2023-08-10T17:59:07.254Z,100960.98
2023-08-10T18:01:38.634Z,100964.92
2023-08-10T18:04:06.958Z,100967.11
2023-08-10T18:06:35.036Z,100970.45
2023-08-10T18:09:03.207Z,100969.87
2023-08-10T18:11:31.377Z,100975.71
2023-08-10T18:14:01.853Z,100974.30
2023-08-10T18:16:31.191Z,100975.79
2023-08-10T18:18:59.107Z,100977.10
2023-08-10T18:21:27.105Z,100979.96
2023-08-10T18:23:56.649Z,100980.77
2023-08-10T18:26:25.870Z,100983.65
2023-08-10T18:28:53.956Z,100983.06
2023-08-10T18:31:22.428Z,100984.72
2023-08-10T18:33:50.564Z,100986.21
2023-08-10T18:36:18.444Z,100984.98
2023-08-10T18:38:46.595Z,100987.17
2023-08-10T18:41:17.497Z,100992.16
2023-08-10T18:43:45.555Z,100989.06
2023-08-10T18:46:13.687Z,100992.15
2023-08-10T18:48:41.611Z,100995.56
2023-08-10T18:51:09.538Z,100995.36
2023-08-10T18:53:37.403Z,100993.05
2023-08-10T18:56:05.348Z,100993.13
2023-08-10T18:58:33.171Z,100995.26
2023-08-10T19:01:01.024Z,100993.44
2023-08-10T19:03:29.173Z,100992.29
2023-08-10T19:05:56.983Z,100993.89
2023-08-10T19:08:24.979Z,100992.78
2023-08-10T19:10:57.041Z,100994.46
2023-08-10T19:13:26.317Z,100993.61
2023-08-10T19:16:05.256Z,100996.99
2023-08-10T19:18:35.318Z,100995.70
2023-08-10T19:21:08.128Z,101000.31
2023-08-10T19:23:36.408Z,101001.53
2023-08-10T19:26:04.885Z,101003.58
2023-08-10T19:28:36.063Z,101003.73
2023-08-10T19:31:08.848Z,101001.09
2023-08-10T19:33:38.329Z,100998.95
2023-08-10T19:36:06.528Z,100996.99
2023-08-10T19:38:34.447Z,100998.13
2023-08-10T19:41:02.302Z,101002.51
2023-08-10T19:43:30.291Z,101003.48
2023-08-10T19:45:59.557Z,101000.14
2023-08-10T19:48:27.727Z,101003.16
2023-08-10T19:50:55.777Z,101005.84
2023-08-10T19:53:23.757Z,101006.30
2023-08-10T19:55:52.203Z,101011.73
2023-08-10T19:58:22.167Z,101012.17
2023-08-10T20:00:50.036Z,101010.54
2023-08-10T20:03:17.997Z,101014.05
2023-08-10T20:05:47.155Z,101014.62
2023-08-10T20:08:16.736Z,101008.51
2023-08-10T20:10:46.697Z,101009.93
2023-08-10T20:13:17.535Z,101015.84
2023-08-10T20:15:46.673Z,101014.17
2023-08-10T20:18:14.925Z,101019.23
2023-08-10T20:20:46.070Z,101019.09
2023-08-10T20:23:15.324Z,101020.35
2023-08-10T20:25:43.918Z,101020.40
2023-08-10T20:28:21.540Z,101017.20
2023-08-10T20:30:51.004Z,101017.59
2023-08-10T20:33:23.198Z,101017.47
2023-08-10T20:35:54.106Z,101017.71
2023-08-10T20:38:22.588Z,101016.05
2023-08-10T20:40:53.117Z,101015.38
2023-08-10T20:43:23.891Z,101013.69
2023-08-10T20:45:54.305Z,101014.27
2023-08-10T20:48:23.480Z,101016.00
2023-08-10T20:50:54.926Z,101013.10
2023-08-10T20:53:25.583Z,101011.08
2023-08-10T20:55:55.569Z,101008.55
2023-08-10T20:58:26.500Z,101008.27
2023-08-10T21:00:56.455Z,101009.13
2023-08-10T21:03:27.029Z,101011.21
2023-08-10T21:05:57.574Z,101011.06
2023-08-10T21:08:41.847Z,101012.81
2023-08-10T21:11:10.415Z,101015.73
2023-08-10T21:13:40.933Z,101018.83
2023-08-10T21:16:11.609Z,101017.30
2023-08-10T21:18:45.314Z,101017.48
2023-08-10T21:21:22.147Z,101018.70
2023-08-10T21:23:55.142Z,101015.46
2023-08-10T21:26:26.808Z,101013.95
2023-08-10T21:28:56.034Z,101012.59
2023-08-10T21:31:24.256Z,101014.13
2023-08-10T21:33:54.498Z,101016.02
2023-08-10T21:36:23.070Z,101012.45
2023-08-10T21:38:55.170Z,101014.69
2023-08-10T21:41:24.533Z,101015.56
2023-08-10T21:43:55.165Z,101015.93
2023-08-10T21:46:23.687Z,101017.14
2023-08-10T21:48:52.024Z,101019.56
2023-08-10T21:51:20.821Z,101021.98
2023-08-10T21:53:49.085Z,101021.48
2023-08-10T21:56:28.733Z,101025.63
2023-08-10T21:59:00.994Z,101023.06
2023-08-10T22:01:29.679Z,101022.05
2023-08-10T22:03:58.059Z,101021.02
2023-08-10T22:06:28.383Z,101028.90
2023-08-10T22:08:56.558Z,101029.75
2023-08-10T22:11:27.288Z,101032.34
2023-08-10T22:13:55.713Z,101034.58
2023-08-10T22:16:24.407Z,101035.44
2023-08-10T22:18:54.714Z,101033.91
2023-08-10T22:21:24.075Z,101029.11
2023-08-10T22:23:52.254Z,101028.77
2023-08-10T22:26:20.632Z,101028.27
2023-08-10T22:28:49.820Z,101026.02
2023-08-10T22:31:18.013Z,101028.44
2023-08-10T22:33:47.024Z,101028.45
2023-08-10T22:36:18.260Z,101026.38
2023-08-10T22:38:46.952Z,101024.68
2023-08-10T22:41:19.844Z,101027.60
2023-08-10T22:43:48.070Z,101024.17
2023-08-10T22:46:16.466Z,101026.23
2023-08-10T22:48:44.520Z,101025.36
2023-08-10T22:51:12.498Z,101027.08
2023-08-10T22:53:40.507Z,101024.86
2023-08-10T22:56:08.421Z,101021.61
2023-08-10T22:58:36.394Z,101023.30
2023-08-10T23:01:05.597Z,101024.52
2023-08-10T23:03:46.872Z,101020.40
2023-08-10T23:06:15.041Z,101021.42
2023-08-10T23:08:43.213Z,101023.13
2023-08-10T23:11:11.180Z,101024.84
2023-08-10T23:13:39.044Z,101021.91
2023-08-10T23:16:08.715Z,101020.73
2023-08-10T23:18:36.721Z,101021.73
2023-08-10T23:21:04.915Z,101027.03
2023-08-10T23:23:33.189Z,101023.77
2023-08-10T23:26:01.089Z,101027.70
2023-08-10T23:28:29.027Z,101023.92
2023-08-10T23:30:57.094Z,101020.66
2023-08-10T23:33:25.066Z,101020.33
2023-08-10T23:35:53.661Z,101022.34
2023-08-10T23:38:21.623Z,101020.63
2023-08-10T23:40:49.579Z,101019.11
2023-08-10T23:43:19.090Z,101017.88
2023-08-10T23:45:47.567Z,101019.56
2023-08-10T23:48:16.358Z,101017.34
2023-08-10T23:50:44.317Z,101015.79
2023-08-10T23:53:12.186Z,101013.56
2023-08-10T23:55:40.868Z,101012.20
2023-08-10T23:58:08.836Z,101015.77
